Skip Navigation Links
NOAA logo - Click to go to the NOAA homepage
NOAA's National Weather Service
Alaska Aviation Weather Unit
  NWS logo - Click to go to the NWS homepage
Left Navbar Graphic     23 AKDT = 07 GMT

   
NOAA is celebrating 200 years of science, service, and stewardship. Visit the NOAA 200th celebration Web site to learn more.
USA.gov is the U.S. Government's official Web portal to all Federal, state and local government Web resources and services.
Facebook
NWS on Facebook

AAWU Home :: Display TAF Add Bookmark
METAR PAPO 240156Z AUTO 02024KT 10SM CLR M04/M08 A2994 RMK AO2 PK WND
     02028/0146 SLP139 T10441078 FZRANO=

METAR PAPO 240256Z AUTO 02021KT 10SM CLR M04/M08 A2994 RMK AO2 PK WND
     02030/0206 SLP138 T10441078 56010 FZRANO=

METAR PAPO 240356Z AUTO 02023G28KT 10SM CLR M05/M08 A2993 RMK AO2 PK WND
     02029/0314 SLP135 T10501083 FZRANO=

METAR PAPO 240456Z AUTO 02022KT 10SM CLR M06/M08 A2993 RMK AO2 PK WND
     03029/0417 SLP134 T10561083 FZRANO=

METAR PAPO 240556Z AUTO 03021KT 10SM CLR M06/M09 A2993 RMK AO2 PK
 WND 02028/0524 SLP133 T10611094 11039 21061 56004 FZRANO=

METAR PAPO 240656Z AUTO 02021G27KT 10SM CLR M07/M11 A2992 RMK AO2 PK
 WND 03027/0651 SLP133 T10671106 FZRANO=


NOAA's National Weather Service
Alaska Aviation Weather Unit
6930 Sand Lake Road
Anchorage, AK 99502-1845
Disclaimer
Credits
Glossary
Privacy Policy
About Us
Career Opportunities
Contact AAWU Internet Services Site last modified: April, 17th 2012